createdAt,value
2019-05-02T00:01:37.491Z,6.57
2019-05-02T00:04:06.452Z,6.70
2019-05-02T00:06:37.973Z,6.07
2019-05-02T00:09:09.138Z,6.00
2019-05-02T00:11:38.670Z,6.07
2019-05-02T00:14:07.729Z,6.20
2019-05-02T00:16:36.723Z,6.30
2019-05-02T00:19:09.094Z,6.37
2019-05-02T00:21:38.215Z,6.30
2019-05-02T00:24:07.904Z,6.63
2019-05-02T00:26:36.487Z,6.83
2019-05-02T00:29:05.371Z,6.00
2019-05-02T00:31:34.539Z,6.43
2019-05-02T00:34:03.832Z,6.47
2019-05-02T00:36:32.397Z,6.27
2019-05-02T00:39:01.107Z,6.27
2019-05-02T00:41:33.191Z,6.27
2019-05-02T00:44:00.372Z,6.50
2019-05-02T00:46:30.278Z,7.00
2019-05-02T00:49:01.821Z,6.70
2019-05-02T00:51:30.316Z,7.27
2019-05-02T00:53:59.007Z,8.17
2019-05-02T00:56:27.661Z,8.57
2019-05-02T00:58:56.375Z,7.93
2019-05-02T01:01:31.007Z,8.03
2019-05-02T01:04:01.643Z,7.17
2019-05-02T01:06:30.271Z,7.53
2019-05-02T01:08:58.959Z,7.43
2019-05-02T01:11:47.041Z,7.33
2019-05-02T01:14:16.041Z,7.17
2019-05-02T01:16:44.684Z,6.73
2019-05-02T01:19:16.148Z,6.50
2019-05-02T01:21:44.006Z,6.30
2019-05-02T01:24:12.692Z,6.40
2019-05-02T01:26:45.746Z,6.33
2019-05-02T01:29:35.366Z,6.87
2019-05-02T01:32:25.135Z,6.50
2019-05-02T01:34:54.874Z,8.00
2019-05-02T01:37:25.832Z,6.90
2019-05-02T01:39:54.526Z,6.67
2019-05-02T01:42:44.505Z,6.60
2019-05-02T01:45:13.683Z,7.20
2019-05-02T01:47:42.479Z,7.03
2019-05-02T01:50:11.582Z,8.30
2019-05-02T01:52:40.260Z,6.87
2019-05-02T01:55:09.117Z,6.37
2019-05-02T01:57:39.967Z,6.17
2019-05-02T02:00:11.482Z,6.00
2019-05-02T02:02:40.242Z,6.10
2019-05-02T02:05:09.390Z,6.73
2019-05-02T02:07:38.142Z,6.80
2019-05-02T02:10:07.487Z,7.13
2019-05-02T02:12:36.301Z,6.13
2019-05-02T02:15:25.140Z,6.83
2019-05-02T02:17:55.184Z,6.40
2019-05-02T02:20:37.430Z,6.50
2019-05-02T02:23:14.136Z,5.70
2019-05-02T02:25:42.779Z,7.20
2019-05-02T02:28:11.509Z,5.87
2019-05-02T02:30:40.277Z,6.63
2019-05-02T02:33:09.834Z,6.40
2019-05-02T02:35:49.725Z,6.23
2019-05-02T02:38:09.164Z,6.43
2019-05-02T02:40:37.785Z,6.27
2019-05-02T02:43:29.963Z,5.97
2019-05-02T02:45:57.772Z,5.90
2019-05-02T02:48:22.463Z,6.90
2019-05-02T02:50:51.160Z,6.47
2019-05-02T02:53:31.460Z,6.53
2019-05-02T02:56:03.882Z,6.37
2019-05-02T02:58:44.645Z,6.47
2019-05-02T03:01:03.154Z,6.43
2019-05-02T03:03:35.101Z,5.93
2019-05-02T03:06:05.654Z,6.33
2019-05-02T03:08:32.486Z,6.40
2019-05-02T03:11:01.681Z,6.43
2019-05-02T03:13:52.806Z,6.27
2019-05-02T03:16:45.934Z,6.13
2019-05-02T03:19:14.480Z,6.23
2019-05-02T03:21:40.652Z,6.07
2019-05-02T03:24:09.399Z,6.13
2019-05-02T03:26:38.192Z,6.50
2019-05-02T03:29:06.823Z,6.73
2019-05-02T03:31:36.363Z,6.77
2019-05-02T03:34:05.740Z,6.30
2019-05-02T03:36:37.067Z,6.53
2019-05-02T03:39:14.773Z,7.23
2019-05-02T03:41:37.604Z,7.67
2019-05-02T03:44:11.075Z,6.73
2019-05-02T03:46:36.748Z,6.67
2019-05-02T03:49:07.455Z,5.33
2019-05-02T03:51:35.767Z,6.87
2019-05-02T03:54:23.752Z,6.83
2019-05-02T03:56:53.445Z,7.13
2019-05-02T03:59:22.899Z,6.30
2019-05-02T04:01:52.122Z,6.70
2019-05-02T04:04:22.778Z,6.50
2019-05-02T04:06:54.871Z,7.27
2019-05-02T04:09:38.947Z,5.93
2019-05-02T04:12:11.536Z,6.50
2019-05-02T04:14:38.511Z,7.30
2019-05-02T04:17:09.512Z,6.67
2019-05-02T04:19:38.180Z,7.33
2019-05-02T04:22:11.778Z,7.07
2019-05-02T04:24:38.329Z,6.73
2019-05-02T04:27:07.146Z,6.63
2019-05-02T04:29:36.643Z,6.03
2019-05-02T04:32:11.624Z,6.57
2019-05-02T04:34:36.140Z,6.50
2019-05-02T04:37:04.729Z,7.07
2019-05-02T04:39:33.662Z,7.03
2019-05-02T04:42:12.935Z,7.13
2019-05-02T04:44:52.742Z,7.33
2019-05-02T04:47:16.650Z,7.77
2019-05-02T04:49:39.448Z,7.63
2019-05-02T04:52:12.296Z,6.77
2019-05-02T04:54:39.032Z,6.40
2019-05-02T04:57:08.680Z,6.67
2019-05-02T04:59:39.526Z,7.17
2019-05-02T05:02:09.079Z,6.57
2019-05-02T05:04:41.920Z,7.07
2019-05-02T05:07:09.260Z,7.27
2019-05-02T05:09:40.007Z,8.03
2019-05-02T05:12:09.480Z,6.67
2019-05-02T05:14:42.882Z,7.93
2019-05-02T05:17:08.385Z,7.43
2019-05-02T05:19:37.455Z,7.40
2019-05-02T05:22:08.787Z,8.30
2019-05-02T05:24:42.482Z,7.83
2019-05-02T05:27:13.259Z,8.20
2019-05-02T05:29:41.671Z,8.30
2019-05-02T05:32:22.696Z,8.40
2019-05-02T05:34:53.011Z,8.93
2019-05-02T05:37:21.796Z,8.17
2019-05-02T05:39:52.532Z,9.47
2019-05-02T05:42:23.258Z,8.43
2019-05-02T05:44:52.884Z,9.20
2019-05-02T05:47:21.534Z,8.20
2019-05-02T05:49:52.378Z,8.70
2019-05-02T05:52:22.105Z,8.57
2019-05-02T05:54:50.667Z,8.33
2019-05-02T05:57:21.099Z,9.10
2019-05-02T05:59:49.576Z,8.70
2019-05-02T06:02:18.524Z,9.00
2019-05-02T06:04:50.150Z,9.73
2019-05-02T06:07:20.028Z,9.47
2019-05-02T06:09:48.447Z,9.57
2019-05-02T06:12:17.030Z,8.70
2019-05-02T06:14:46.646Z,9.20
2019-05-02T06:17:15.595Z,8.97
2019-05-02T06:19:48.408Z,9.70
2019-05-02T06:22:16.498Z,9.97
2019-05-02T06:24:46.161Z,9.13
2019-05-02T06:27:15.493Z,8.97
2019-05-02T06:29:44.159Z,8.53
2019-05-02T06:32:14.145Z,8.93
2019-05-02T06:34:46.464Z,7.27
2019-05-02T06:37:15.424Z,7.90
2019-05-02T06:39:43.817Z,7.53
2019-05-02T06:42:12.497Z,7.43
2019-05-02T06:44:41.145Z,8.17
2019-05-02T06:47:11.189Z,7.70
2019-05-02T06:49:39.808Z,7.63
2019-05-02T06:52:08.504Z,7.93
2019-05-02T06:54:38.133Z,7.53
2019-05-02T06:57:06.998Z,7.60
2019-05-02T06:59:35.592Z,7.30
2019-05-02T07:02:04.613Z,6.77
2019-05-02T07:04:34.196Z,7.23
2019-05-02T07:07:25.246Z,6.33
2019-05-02T07:09:52.856Z,7.40
2019-05-02T07:12:22.947Z,7.77
2019-05-02T07:14:56.174Z,7.00
2019-05-02T07:17:38.992Z,7.50
2019-05-02T07:20:09.888Z,6.90
2019-05-02T07:22:40.454Z,7.77
2019-05-02T07:25:10.163Z,7.53
2019-05-02T07:27:39.253Z,7.93
2019-05-02T07:30:11.354Z,7.40
2019-05-02T07:32:40.163Z,7.83
2019-05-02T07:35:09.135Z,7.03
2019-05-02T07:37:38.128Z,7.90
2019-05-02T07:40:12.126Z,7.63
2019-05-02T07:42:41.845Z,7.20
2019-05-02T07:45:10.805Z,7.47
2019-05-02T07:47:40.098Z,7.97
2019-05-02T07:50:11.934Z,7.70
2019-05-02T07:52:41.456Z,7.60
2019-05-02T07:55:10.911Z,7.77
2019-05-02T07:57:39.827Z,8.03
2019-05-02T08:00:14.056Z,8.10
2019-05-02T08:02:43.393Z,7.77
2019-05-02T08:05:15.679Z,7.87
2019-05-02T08:07:43.223Z,7.17
2019-05-02T08:10:16.333Z,7.70
2019-05-02T08:12:43.185Z,7.23
2019-05-02T08:15:15.244Z,7.87
2019-05-02T08:17:44.216Z,7.10
2019-05-02T08:20:13.536Z,7.47
2019-05-02T08:22:44.156Z,7.30
2019-05-02T08:25:15.010Z,8.10
2019-05-02T08:27:45.256Z,7.20
2019-05-02T08:30:16.863Z,8.63
2019-05-02T08:32:45.490Z,7.83
2019-05-02T08:35:14.207Z,7.50
2019-05-02T08:37:44.970Z,6.70
2019-05-02T08:40:14.220Z,7.30
2019-05-02T08:42:43.037Z,8.33
2019-05-02T08:45:13.424Z,8.00
2019-05-02T08:47:42.567Z,7.93
2019-05-02T08:50:11.782Z,7.60
2019-05-02T08:52:42.292Z,9.00
2019-05-02T08:55:12.459Z,8.07
2019-05-02T08:57:41.243Z,8.00
2019-05-02T09:00:11.993Z,7.60
2019-05-02T09:02:41.905Z,8.07
2019-05-02T09:05:11.258Z,8.30
2019-05-02T09:07:46.226Z,8.20
2019-05-02T09:10:15.520Z,8.10
2019-05-02T09:12:45.583Z,7.63
2019-05-02T09:15:14.732Z,9.03
2019-05-02T09:17:51.754Z,7.77
2019-05-02T09:20:20.193Z,8.20
2019-05-02T09:22:46.477Z,8.17
2019-05-02T09:25:19.564Z,8.27
2019-05-02T09:27:54.178Z,7.67
2019-05-02T09:30:22.829Z,8.27
2019-05-02T09:32:49.227Z,8.40
2019-05-02T09:35:17.868Z,8.40
2019-05-02T09:37:46.557Z,7.60
2019-05-02T09:40:16.792Z,7.97
2019-05-02T09:42:47.570Z,7.63
2019-05-02T09:45:27.910Z,8.27
2019-05-02T09:48:01.588Z,7.90
2019-05-02T09:50:29.526Z,7.63
2019-05-02T09:52:54.837Z,7.80
2019-05-02T09:55:23.668Z,8.30
2019-05-02T09:57:52.773Z,8.23
2019-05-02T10:00:31.291Z,8.53
2019-05-02T10:02:57.547Z,8.40
2019-05-02T10:05:28.100Z,7.37
2019-05-02T10:07:57.378Z,8.27
2019-05-02T10:10:29.262Z,7.47
2019-05-02T10:12:57.985Z,6.93
2019-05-02T10:15:27.295Z,7.33
2019-05-02T10:18:07.896Z,7.07
2019-05-02T10:20:34.165Z,7.10
2019-05-02T10:22:57.121Z,6.30
2019-05-02T10:25:32.700Z,7.50
2019-05-02T10:27:56.987Z,6.70
2019-05-02T10:30:35.997Z,6.90
2019-05-02T10:33:05.072Z,7.03
2019-05-02T10:35:43.395Z,6.70
2019-05-02T10:38:19.347Z,6.00
2019-05-02T10:40:53.514Z,7.10
2019-05-02T10:43:18.382Z,6.67
2019-05-02T10:45:52.810Z,6.13
2019-05-02T10:48:27.401Z,6.17
2019-05-02T10:50:54.645Z,7.20
2019-05-02T10:53:23.397Z,7.23
2019-05-02T10:55:52.508Z,7.00
2019-05-02T10:58:26.156Z,7.83
2019-05-02T11:00:53.422Z,8.10
2019-05-02T11:03:31.818Z,7.10
2019-05-02T11:06:05.685Z,6.57
2019-05-02T11:08:42.134Z,7.17
2019-05-02T11:11:08.401Z,9.00
2019-05-02T11:13:47.504Z,7.87
2019-05-02T11:16:23.841Z,8.30
2019-05-02T11:19:06.392Z,7.80
2019-05-02T11:21:35.175Z,7.70
2019-05-02T11:24:04.229Z,8.50
2019-05-02T11:26:33.183Z,8.03
2019-05-02T11:29:03.063Z,7.93
2019-05-02T11:31:32.551Z,7.33
2019-05-02T11:34:12.819Z,8.07
2019-05-02T11:36:42.195Z,8.30
2019-05-02T11:39:37.773Z,8.07
2019-05-02T11:42:02.237Z,8.53
2019-05-02T11:44:32.633Z,7.83
2019-05-02T11:47:03.008Z,8.53
2019-05-02T11:49:32.361Z,8.73
2019-05-02T11:52:04.223Z,7.80
2019-05-02T11:54:32.029Z,8.50
2019-05-02T11:57:02.188Z,8.73
2019-05-02T11:59:32.003Z,8.63
2019-05-02T12:05:22.150Z,8.43
2019-05-02T12:07:52.646Z,7.90
2019-05-02T12:10:27.870Z,8.80
2019-05-02T12:12:54.852Z,8.90
2019-05-02T12:15:23.461Z,9.40
2019-05-02T12:17:52.419Z,9.07
2019-05-02T12:20:22.771Z,8.67
2019-05-02T12:22:52.757Z,8.73
2019-05-02T12:25:22.449Z,9.57
2019-05-02T12:27:52.740Z,9.67
2019-05-02T12:30:22.847Z,9.73
2019-05-02T12:32:53.114Z,9.80
2019-05-02T12:35:23.845Z,9.27
2019-05-02T12:37:55.322Z,8.30
2019-05-02T12:40:26.071Z,9.83
2019-05-02T12:42:54.862Z,10.20
2019-05-02T12:45:23.776Z,10.00
2019-05-02T12:47:52.594Z,9.43
2019-05-02T12:50:22.864Z,9.63
2019-05-02T12:52:52.131Z,9.30
2019-05-02T12:55:22.417Z,10.03
2019-05-02T12:57:52.321Z,9.20
2019-05-02T13:00:22.306Z,9.47
2019-05-02T13:03:02.081Z,9.73
2019-05-02T13:05:32.914Z,9.57
2019-05-02T13:08:04.185Z,9.20
2019-05-02T13:11:01.826Z,9.33
2019-05-02T13:13:24.167Z,9.13
2019-05-02T13:15:53.312Z,8.57
2019-05-02T13:18:23.328Z,10.20
2019-05-02T13:20:52.996Z,8.50
2019-05-02T13:23:30.493Z,8.57
2019-05-02T13:25:56.815Z,9.53
2019-05-02T13:28:25.816Z,9.07
2019-05-02T13:30:56.557Z,9.60
2019-05-02T13:33:34.407Z,9.93
2019-05-02T13:36:02.409Z,10.13
2019-05-02T13:38:51.928Z,9.57
2019-05-02T13:41:22.505Z,9.93
2019-05-02T13:43:52.538Z,9.67
2019-05-02T13:46:22.261Z,9.70
2019-05-02T13:48:52.509Z,8.83
2019-05-02T13:51:22.291Z,9.57
2019-05-02T13:53:54.216Z,9.50
2019-05-02T13:56:25.623Z,9.60
2019-05-02T13:58:54.383Z,9.87
2019-05-02T14:01:25.966Z,9.43
2019-05-02T14:03:55.815Z,9.17
2019-05-02T14:06:45.921Z,9.83
2019-05-02T14:09:23.159Z,9.37
2019-05-02T14:11:58.704Z,9.60
2019-05-02T14:14:32.449Z,9.50
2019-05-02T14:17:04.143Z,9.37
2019-05-02T14:19:33.949Z,8.50
2019-05-02T14:22:05.147Z,9.17
2019-05-02T14:24:34.086Z,8.23
2019-05-02T14:27:02.971Z,9.60
2019-05-02T14:29:33.235Z,9.00
2019-05-02T14:32:02.657Z,8.50
2019-05-02T14:34:33.316Z,8.93
2019-05-02T14:37:02.193Z,8.17
2019-05-02T14:39:32.474Z,8.27
2019-05-02T14:42:02.083Z,7.40
2019-05-02T14:44:57.971Z,8.03
2019-05-02T14:47:02.279Z,7.83
2019-05-02T14:49:32.144Z,7.60
2019-05-02T14:52:02.935Z,7.13
2019-05-02T14:54:32.494Z,7.37
2019-05-02T14:57:05.649Z,8.07
2019-05-02T14:59:34.304Z,8.27
2019-05-02T15:02:07.416Z,8.10
2019-05-02T15:04:38.139Z,7.43
2019-05-02T15:07:05.864Z,8.83
2019-05-02T15:09:36.396Z,7.30
2019-05-02T15:12:15.804Z,7.57
2019-05-02T15:14:39.875Z,6.70
2019-05-02T15:17:08.754Z,6.57
2019-05-02T15:19:37.430Z,6.43
2019-05-02T15:22:06.336Z,6.80
2019-05-02T15:24:37.341Z,6.63
2019-05-02T15:27:12.074Z,7.07
2019-05-02T15:29:35.730Z,6.80
2019-05-02T15:32:15.555Z,6.73
2019-05-02T15:34:57.686Z,6.10
2019-05-02T15:37:27.432Z,7.03
2019-05-02T15:42:27.757Z,7.10
2019-05-02T15:44:57.127Z,7.63
2019-05-02T15:47:26.935Z,6.37
2019-05-02T15:49:55.511Z,6.93
2019-05-02T15:52:27.760Z,7.33
2019-05-02T15:54:59.774Z,7.23
2019-05-02T15:57:47.139Z,7.40
2019-05-02T16:00:33.979Z,7.13
2019-05-02T16:03:04.393Z,7.13
2019-05-02T16:05:36.671Z,6.50
2019-05-02T16:08:06.296Z,6.60
2019-05-02T16:10:38.444Z,7.13
2019-05-02T16:13:08.781Z,7.10
2019-05-02T16:15:36.368Z,7.50
2019-05-02T16:18:05.342Z,8.10
2019-05-02T16:21:04.798Z,7.03
2019-05-02T16:23:31.782Z,6.50
2019-05-02T16:25:56.932Z,7.40
2019-05-02T16:28:25.859Z,7.40
2019-05-02T16:30:56.149Z,6.63
2019-05-02T16:33:24.728Z,7.17
2019-05-02T16:35:54.564Z,6.70
2019-05-02T16:38:26.904Z,7.23
2019-05-02T16:40:53.786Z,7.07
2019-05-02T16:43:24.740Z,9.07
2019-05-02T16:45:53.714Z,7.80
2019-05-02T16:48:23.845Z,8.70
2019-05-02T16:50:52.726Z,9.23
2019-05-02T16:53:22.690Z,9.77
2019-05-02T16:55:53.550Z,8.70
2019-05-02T16:58:22.029Z,10.90
2019-05-02T17:00:52.652Z,9.47
2019-05-02T17:03:22.749Z,9.30
2019-05-02T17:06:12.396Z,9.80
2019-05-02T17:09:02.226Z,9.93
2019-05-02T17:11:35.846Z,11.50
2019-05-02T17:14:07.023Z,9.10
2019-05-02T17:16:33.396Z,8.50
2019-05-02T17:19:01.987Z,9.43
2019-05-02T17:21:33.680Z,8.90
2019-05-02T17:24:02.614Z,8.60
2019-05-02T17:26:31.810Z,10.00
2019-05-02T17:29:02.417Z,8.47
2019-05-02T17:31:32.185Z,8.90
2019-05-02T17:34:02.740Z,8.10
2019-05-02T17:36:32.547Z,8.67
2019-05-02T17:39:06.787Z,8.97
2019-05-02T17:41:31.898Z,9.07
2019-05-02T17:44:00.873Z,8.87
2019-05-02T17:46:29.587Z,8.90
2019-05-02T17:48:58.352Z,8.40
2019-05-02T17:51:37.755Z,8.67
2019-05-02T17:54:05.579Z,7.40
2019-05-02T17:56:34.264Z,8.63
2019-05-02T17:59:02.970Z,7.47
2019-05-02T18:01:35.947Z,7.37
2019-05-02T18:04:06.779Z,8.50
2019-05-02T18:06:35.912Z,8.87
2019-05-02T18:09:07.201Z,8.20
2019-05-02T18:11:37.715Z,7.50
2019-05-02T18:14:16.078Z,8.20
2019-05-02T18:16:39.195Z,8.60
2019-05-02T18:19:07.004Z,8.27
2019-05-02T18:21:35.561Z,8.30
2019-05-02T18:24:06.139Z,9.00
2019-05-02T18:26:39.942Z,9.10
2019-05-02T18:29:08.603Z,9.77
2019-05-02T18:31:39.690Z,8.77
2019-05-02T18:34:11.903Z,8.70
2019-05-02T18:36:37.970Z,9.20
2019-05-02T18:39:08.529Z,8.87
2019-05-02T18:41:41.686Z,8.47
2019-05-02T18:44:09.147Z,7.73
2019-05-02T18:46:41.694Z,7.77
2019-05-02T18:49:08.342Z,7.93
2019-05-02T18:51:36.919Z,8.10
2019-05-02T18:54:07.543Z,9.10
2019-05-02T18:56:42.299Z,9.33
2019-05-02T18:59:06.621Z,8.13
2019-05-02T19:01:35.615Z,8.30
2019-05-02T19:04:05.122Z,8.60
2019-05-02T19:06:36.201Z,7.57
2019-05-02T19:09:07.735Z,7.93
2019-05-02T19:11:36.357Z,7.23
2019-05-02T19:14:09.055Z,6.60
2019-05-02T19:16:38.125Z,7.40
2019-05-02T19:19:08.602Z,7.20
2019-05-02T19:21:39.460Z,7.70
2019-05-02T19:24:09.431Z,7.07
2019-05-02T19:26:41.678Z,7.60
2019-05-02T19:29:21.444Z,7.70
2019-05-02T19:31:49.354Z,7.20
2019-05-02T19:34:24.732Z,7.57
2019-05-02T19:36:48.766Z,7.13
2019-05-02T19:39:17.639Z,8.23
2019-05-02T19:41:46.357Z,7.80
2019-05-02T19:44:15.403Z,8.43
2019-05-02T19:46:45.255Z,7.97
2019-05-02T19:49:16.230Z,7.57
2019-05-02T19:51:44.381Z,6.77
2019-05-02T19:54:13.150Z,7.23
2019-05-02T19:56:47.098Z,9.20
2019-05-02T19:59:16.806Z,7.40
2019-05-02T20:01:45.095Z,7.33
2019-05-02T20:04:15.299Z,7.37
2019-05-02T20:06:44.123Z,7.83
2019-05-02T20:09:13.016Z,7.67
2019-05-02T20:11:42.550Z,7.63
2019-05-02T20:14:12.585Z,7.27
2019-05-02T20:16:46.211Z,7.57
2019-05-02T20:19:17.286Z,7.80
2019-05-02T20:21:47.262Z,7.57
2019-05-02T20:24:19.525Z,8.80
2019-05-02T20:26:52.448Z,8.30
2019-05-02T20:29:21.601Z,8.00
2019-05-02T20:31:52.076Z,8.30
2019-05-02T20:34:23.847Z,6.97
2019-05-02T20:37:12.757Z,7.80
2019-05-02T20:39:41.688Z,7.63
2019-05-02T20:42:12.079Z,7.03
2019-05-02T20:44:41.860Z,8.43
2019-05-02T20:47:13.790Z,7.73
2019-05-02T20:49:42.563Z,8.03
2019-05-02T20:52:11.909Z,7.40
2019-05-02T20:54:45.801Z,7.93
2019-05-02T20:57:14.500Z,8.93
2019-05-02T20:59:43.209Z,8.33
2019-05-02T21:02:12.399Z,9.03
2019-05-02T21:04:42.459Z,9.23
2019-05-02T21:07:21.784Z,10.20
2019-05-02T21:09:57.705Z,10.97
2019-05-02T21:12:29.419Z,9.87
2019-05-02T21:15:08.538Z,10.20
2019-05-02T21:17:36.975Z,12.13
2019-05-02T21:20:07.319Z,11.70
2019-05-02T21:22:35.990Z,13.70
2019-05-02T21:25:07.041Z,13.37
2019-05-02T21:27:35.785Z,14.73
2019-05-02T21:30:12.312Z,14.60
2019-05-02T21:32:42.794Z,15.67
2019-05-02T21:35:12.109Z,16.27
2019-05-02T21:37:42.447Z,16.40
2019-05-02T21:40:12.021Z,17.23
2019-05-02T21:42:42.466Z,18.67
2019-05-02T21:45:13.162Z,18.83
2019-05-02T21:47:42.133Z,19.23
2019-05-02T21:50:14.274Z,19.40
2019-05-02T21:52:52.575Z,20.57
2019-05-02T21:55:38.420Z,20.17
2019-05-02T21:58:07.059Z,19.30
2019-05-02T22:00:38.448Z,20.33
2019-05-02T22:03:08.052Z,20.77
2019-05-02T22:05:37.347Z,19.60
2019-05-02T22:08:06.085Z,21.87
2019-05-02T22:10:34.691Z,21.50
2019-05-02T22:13:03.353Z,21.77
2019-05-02T22:15:32.471Z,21.07
2019-05-02T22:18:01.697Z,19.80
2019-05-02T22:20:32.067Z,21.87
2019-05-02T22:23:02.397Z,22.47
2019-05-02T22:25:32.704Z,21.63
2019-05-02T22:28:02.056Z,21.70
2019-05-02T22:30:32.329Z,22.80
2019-05-02T22:33:02.806Z,22.97
2019-05-02T22:35:31.630Z,22.10
2019-05-02T22:38:07.859Z,22.07
2019-05-02T22:40:36.520Z,21.20
2019-05-02T22:43:05.399Z,20.80
2019-05-02T22:45:34.191Z,22.33
2019-05-02T22:48:03.062Z,21.47
2019-05-02T22:50:32.548Z,22.30
2019-05-02T22:53:01.514Z,21.30
2019-05-02T22:55:31.906Z,19.70
2019-05-02T22:58:02.340Z,19.50
2019-05-02T23:00:32.179Z,20.87
2019-05-02T23:03:01.849Z,20.27
2019-05-02T23:05:32.109Z,20.20
2019-05-02T23:08:02.301Z,21.00
2019-05-02T23:10:32.684Z,20.83
2019-05-02T23:13:22.057Z,21.03
2019-05-02T23:15:53.044Z,20.70
2019-05-02T23:18:23.024Z,21.40
2019-05-02T23:20:56.573Z,22.43
2019-05-02T23:23:25.328Z,22.03
2019-05-02T23:25:58.713Z,21.20
2019-05-02T23:28:54.300Z,22.27
2019-05-02T23:31:22.892Z,22.37
2019-05-02T23:34:02.106Z,21.03
2019-05-02T23:36:32.706Z,22.03
2019-05-02T23:39:02.383Z,21.13
2019-05-02T23:41:32.862Z,21.67
2019-05-02T23:44:02.839Z,21.47
2019-05-02T23:46:31.570Z,21.40
2019-05-02T23:49:01.988Z,21.43
2019-05-02T23:51:32.084Z,22.60
2019-05-02T23:54:02.081Z,23.00
2019-05-02T23:56:32.561Z,21.17
2019-05-02T23:59:02.718Z,22.73
